sensor_id;sensor_type;location;lat;lon;timestamp;temperature;humidity
38183;DHT22;23991;52.430;10.586;2023-02-03T00:00:06;5.20;89.60
38183;DHT22;23991;52.430;10.586;2023-02-03T00:02:31;5.20;89.70
38183;DHT22;23991;52.430;10.586;2023-02-03T00:04:57;5.20;89.80
38183;DHT22;23991;52.430;10.586;2023-02-03T00:07:23;5.30;89.90
38183;DHT22;23991;52.430;10.586;2023-02-03T00:09:48;5.30;90.00
38183;DHT22;23991;52.430;10.586;2023-02-03T00:12:14;5.30;90.10
38183;DHT22;23991;52.430;10.586;2023-02-03T00:14:39;5.30;90.20
38183;DHT22;23991;52.430;10.586;2023-02-03T00:17:05;5.30;90.30
38183;DHT22;23991;52.430;10.586;2023-02-03T00:19:31;5.30;90.40
38183;DHT22;23991;52.430;10.586;2023-02-03T00:21:56;5.30;90.40
38183;DHT22;23991;52.430;10.586;2023-02-03T00:24:22;5.30;90.60
38183;DHT22;23991;52.430;10.586;2023-02-03T00:26:48;5.30;90.70
38183;DHT22;23991;52.430;10.586;2023-02-03T00:29:14;5.40;90.80
38183;DHT22;23991;52.430;10.586;2023-02-03T00:31:40;5.40;90.80
38183;DHT22;23991;52.430;10.586;2023-02-03T00:34:05;5.40;90.90
38183;DHT22;23991;52.430;10.586;2023-02-03T00:36:31;5.40;90.90
38183;DHT22;23991;52.430;10.586;2023-02-03T00:38:57;5.40;91.00
38183;DHT22;23991;52.430;10.586;2023-02-03T00:41:22;5.40;91.10
38183;DHT22;23991;52.430;10.586;2023-02-03T00:43:48;5.40;91.10
38183;DHT22;23991;52.430;10.586;2023-02-03T00:46:14;5.40;91.20
38183;DHT22;23991;52.430;10.586;2023-02-03T00:48:40;5.40;91.30
38183;DHT22;23991;52.430;10.586;2023-02-03T00:51:06;5.50;91.30
38183;DHT22;23991;52.430;10.586;2023-02-03T00:53:31;5.50;91.40
38183;DHT22;23991;52.430;10.586;2023-02-03T00:55:57;5.50;91.50
38183;DHT22;23991;52.430;10.586;2023-02-03T00:58:22;5.50;91.70
38183;DHT22;23991;52.430;10.586;2023-02-03T01:00:48;5.60;91.80
38183;DHT22;23991;52.430;10.586;2023-02-03T01:03:13;5.60;91.90
38183;DHT22;23991;52.430;10.586;2023-02-03T01:05:40;5.70;92.00
38183;DHT22;23991;52.430;10.586;2023-02-03T01:08:06;5.80;92.10
38183;DHT22;23991;52.430;10.586;2023-02-03T01:10:31;5.90;92.20
38183;DHT22;23991;52.430;10.586;2023-02-03T01:12:57;5.90;92.20
38183;DHT22;23991;52.430;10.586;2023-02-03T01:15:22;5.90;92.40
38183;DHT22;23991;52.430;10.586;2023-02-03T01:17:48;6.00;92.50
38183;DHT22;23991;52.430;10.586;2023-02-03T01:20:13;6.00;92.50
38183;DHT22;23991;52.430;10.586;2023-02-03T01:22:41;6.10;92.70
38183;DHT22;23991;52.430;10.586;2023-02-03T01:25:07;6.10;92.70
38183;DHT22;23991;52.430;10.586;2023-02-03T01:27:33;6.10;92.80
38183;DHT22;23991;52.430;10.586;2023-02-03T01:29:58;6.10;92.80
38183;DHT22;23991;52.430;10.586;2023-02-03T01:32:25;6.10;92.90
38183;DHT22;23991;52.430;10.586;2023-02-03T01:34:50;6.20;93.00
38183;DHT22;23991;52.430;10.586;2023-02-03T01:37:16;6.30;93.10
38183;DHT22;23991;52.430;10.586;2023-02-03T01:39:43;6.30;93.10
38183;DHT22;23991;52.430;10.586;2023-02-03T01:42:12;6.40;93.20
38183;DHT22;23991;52.430;10.586;2023-02-03T01:44:48;6.50;93.30
38183;DHT22;23991;52.430;10.586;2023-02-03T01:49:52;6.60;93.40
38183;DHT22;23991;52.430;10.586;2023-02-03T01:52:19;6.60;93.40
38183;DHT22;23991;52.430;10.586;2023-02-03T01:54:47;6.70;93.50
38183;DHT22;23991;52.430;10.586;2023-02-03T01:57:20;6.80;93.50
38183;DHT22;23991;52.430;10.586;2023-02-03T01:59:48;6.90;93.50
38183;DHT22;23991;52.430;10.586;2023-02-03T02:02:14;6.90;93.50
38183;DHT22;23991;52.430;10.586;2023-02-03T02:05:00;6.90;93.50
38183;DHT22;23991;52.430;10.586;2023-02-03T02:07:28;6.90;93.50
38183;DHT22;23991;52.430;10.586;2023-02-03T02:09:54;7.00;93.50
38183;DHT22;23991;52.430;10.586;2023-02-03T02:12:20;7.00;93.50
38183;DHT22;23991;52.430;10.586;2023-02-03T02:14:46;7.10;93.40
38183;DHT22;23991;52.430;10.586;2023-02-03T02:17:16;7.10;93.40
38183;DHT22;23991;52.430;10.586;2023-02-03T02:26:15;7.10;93.20
38183;DHT22;23991;52.430;10.586;2023-02-03T02:32:05;7.10;93.10
38183;DHT22;23991;52.430;10.586;2023-02-03T02:37:43;7.20;93.00
38183;DHT22;23991;52.430;10.586;2023-02-03T02:40:22;7.20;93.00
38183;DHT22;23991;52.430;10.586;2023-02-03T02:45:44;7.30;92.90
38183;DHT22;23991;52.430;10.586;2023-02-03T02:50:44;7.30;92.70
38183;DHT22;23991;52.430;10.586;2023-02-03T02:53:11;7.30;92.70
38183;DHT22;23991;52.430;10.586;2023-02-03T02:55:39;7.30;92.60
38183;DHT22;23991;52.430;10.586;2023-02-03T02:58:10;7.30;92.60
38183;DHT22;23991;52.430;10.586;2023-02-03T03:00:37;7.30;92.40
38183;DHT22;23991;52.430;10.586;2023-02-03T03:03:20;7.30;92.30
38183;DHT22;23991;52.430;10.586;2023-02-03T03:05:55;7.40;92.00
38183;DHT22;23991;52.430;10.586;2023-02-03T03:08:33;7.40;91.90
38183;DHT22;23991;52.430;10.586;2023-02-03T03:11:00;7.40;91.70
38183;DHT22;23991;52.430;10.586;2023-02-03T03:13:33;7.40;91.60
38183;DHT22;23991;52.430;10.586;2023-02-03T03:16:01;7.40;91.50
38183;DHT22;23991;52.430;10.586;2023-02-03T03:18:33;7.40;91.40
38183;DHT22;23991;52.430;10.586;2023-02-03T03:21:03;7.50;91.20
38183;DHT22;23991;52.430;10.586;2023-02-03T03:23:37;7.50;91.00
38183;DHT22;23991;52.430;10.586;2023-02-03T03:26:31;7.50;90.60
38183;DHT22;23991;52.430;10.586;2023-02-03T03:29:23;7.50;90.50
38183;DHT22;23991;52.430;10.586;2023-02-03T03:31:50;7.50;90.40
38183;DHT22;23991;52.430;10.586;2023-02-03T03:34:16;7.50;90.30
38183;DHT22;23991;52.430;10.586;2023-02-03T03:37:07;7.60;90.00
38183;DHT22;23991;52.430;10.586;2023-02-03T03:39:57;7.60;89.80
38183;DHT22;23991;52.430;10.586;2023-02-03T03:42:25;7.60;89.50
38183;DHT22;23991;52.430;10.586;2023-02-03T03:44:56;7.60;89.50
38183;DHT22;23991;52.430;10.586;2023-02-03T03:50:29;7.60;89.20
38183;DHT22;23991;52.430;10.586;2023-02-03T03:52:59;7.70;89.10
38183;DHT22;23991;52.430;10.586;2023-02-03T03:55:27;7.60;89.20
38183;DHT22;23991;52.430;10.586;2023-02-03T03:57:59;7.70;89.10
38183;DHT22;23991;52.430;10.586;2023-02-03T04:00:28;7.70;89.00
38183;DHT22;23991;52.430;10.586;2023-02-03T04:02:57;7.70;89.00
38183;DHT22;23991;52.430;10.586;2023-02-03T04:05:24;7.70;88.90
38183;DHT22;23991;52.430;10.586;2023-02-03T04:07:50;7.80;88.80
38183;DHT22;23991;52.430;10.586;2023-02-03T04:10:39;7.70;88.70
38183;DHT22;23991;52.430;10.586;2023-02-03T04:13:07;7.80;88.70
38183;DHT22;23991;52.430;10.586;2023-02-03T04:15:33;7.80;88.50
38183;DHT22;23991;52.430;10.586;2023-02-03T04:17:59;7.80;88.40
38183;DHT22;23991;52.430;10.586;2023-02-03T04:20:29;7.80;88.30
38183;DHT22;23991;52.430;10.586;2023-02-03T04:22:55;7.80;88.10
38183;DHT22;23991;52.430;10.586;2023-02-03T04:25:21;7.80;88.00
38183;DHT22;23991;52.430;10.586;2023-02-03T04:27:47;7.80;88.00
38183;DHT22;23991;52.430;10.586;2023-02-03T04:30:13;7.80;87.80
38183;DHT22;23991;52.430;10.586;2023-02-03T04:32:39;7.80;87.70
38183;DHT22;23991;52.430;10.586;2023-02-03T04:35:06;7.90;87.50
38183;DHT22;23991;52.430;10.586;2023-02-03T04:37:32;7.90;87.60
38183;DHT22;23991;52.430;10.586;2023-02-03T04:39:57;7.90;87.50
38183;DHT22;23991;52.430;10.586;2023-02-03T04:42:23;7.90;87.50
38183;DHT22;23991;52.430;10.586;2023-02-03T04:44:50;7.90;87.40
38183;DHT22;23991;52.430;10.586;2023-02-03T04:47:17;7.90;87.10
38183;DHT22;23991;52.430;10.586;2023-02-03T04:49:43;7.90;87.10
38183;DHT22;23991;52.430;10.586;2023-02-03T04:52:09;7.90;87.10
38183;DHT22;23991;52.430;10.586;2023-02-03T04:54:35;7.90;87.00
38183;DHT22;23991;52.430;10.586;2023-02-03T04:57:00;7.90;86.90
38183;DHT22;23991;52.430;10.586;2023-02-03T04:59:26;7.90;86.80
38183;DHT22;23991;52.430;10.586;2023-02-03T05:01:52;7.90;86.80
38183;DHT22;23991;52.430;10.586;2023-02-03T05:04:17;7.90;86.70
38183;DHT22;23991;52.430;10.586;2023-02-03T05:06:43;7.90;86.80
38183;DHT22;23991;52.430;10.586;2023-02-03T05:09:09;7.90;86.70
38183;DHT22;23991;52.430;10.586;2023-02-03T05:11:34;8.00;86.70
38183;DHT22;23991;52.430;10.586;2023-02-03T05:14:00;7.90;86.50
38183;DHT22;23991;52.430;10.586;2023-02-03T05:16:25;7.90;86.50
38183;DHT22;23991;52.430;10.586;2023-02-03T05:18:51;7.90;86.50
38183;DHT22;23991;52.430;10.586;2023-02-03T05:21:17;8.00;86.40
38183;DHT22;23991;52.430;10.586;2023-02-03T05:23:42;8.00;86.20
38183;DHT22;23991;52.430;10.586;2023-02-03T05:26:08;8.00;86.10
38183;DHT22;23991;52.430;10.586;2023-02-03T05:28:34;8.10;86.10
38183;DHT22;23991;52.430;10.586;2023-02-03T05:31:00;8.10;86.00
38183;DHT22;23991;52.430;10.586;2023-02-03T05:33:26;8.00;86.00
38183;DHT22;23991;52.430;10.586;2023-02-03T05:35:52;8.00;86.10
38183;DHT22;23991;52.430;10.586;2023-02-03T05:38:17;8.10;86.00
38183;DHT22;23991;52.430;10.586;2023-02-03T05:40:43;8.10;86.00
38183;DHT22;23991;52.430;10.586;2023-02-03T05:43:27;8.10;86.00
38183;DHT22;23991;52.430;10.586;2023-02-03T05:45:53;8.10;86.00
38183;DHT22;23991;52.430;10.586;2023-02-03T05:48:19;8.10;86.10
38183;DHT22;23991;52.430;10.586;2023-02-03T05:50:44;8.10;86.10
38183;DHT22;23991;52.430;10.586;2023-02-03T05:53:10;8.10;86.10
38183;DHT22;23991;52.430;10.586;2023-02-03T05:55:36;8.10;86.10
38183;DHT22;23991;52.430;10.586;2023-02-03T05:58:03;8.10;86.10
38183;DHT22;23991;52.430;10.586;2023-02-03T06:00:29;8.10;86.20
38183;DHT22;23991;52.430;10.586;2023-02-03T06:02:57;8.10;86.20
38183;DHT22;23991;52.430;10.586;2023-02-03T06:05:24;8.10;86.30
38183;DHT22;23991;52.430;10.586;2023-02-03T06:07:50;8.10;86.30
38183;DHT22;23991;52.430;10.586;2023-02-03T06:10:16;8.10;86.20
38183;DHT22;23991;52.430;10.586;2023-02-03T06:12:42;8.10;86.30
38183;DHT22;23991;52.430;10.586;2023-02-03T06:15:09;8.10;86.20
38183;DHT22;23991;52.430;10.586;2023-02-03T06:17:35;8.10;86.00
38183;DHT22;23991;52.430;10.586;2023-02-03T06:20:02;8.10;85.90
38183;DHT22;23991;52.430;10.586;2023-02-03T06:22:28;8.10;85.90
38183;DHT22;23991;52.430;10.586;2023-02-03T06:24:53;8.10;85.90
38183;DHT22;23991;52.430;10.586;2023-02-03T06:27:19;8.10;85.90
38183;DHT22;23991;52.430;10.586;2023-02-03T06:29:44;8.10;86.00
38183;DHT22;23991;52.430;10.586;2023-02-03T06:32:10;8.10;86.10
38183;DHT22;23991;52.430;10.586;2023-02-03T06:34:35;8.20;86.10
38183;DHT22;23991;52.430;10.586;2023-02-03T06:37:01;8.20;86.20
38183;DHT22;23991;52.430;10.586;2023-02-03T06:39:26;8.20;86.10
38183;DHT22;23991;52.430;10.586;2023-02-03T06:41:52;8.20;86.10
38183;DHT22;23991;52.430;10.586;2023-02-03T06:44:17;8.20;86.20
38183;DHT22;23991;52.430;10.586;2023-02-03T06:46:43;8.20;86.30
38183;DHT22;23991;52.430;10.586;2023-02-03T06:49:09;8.20;86.60
38183;DHT22;23991;52.430;10.586;2023-02-03T06:51:35;8.20;86.70
38183;DHT22;23991;52.430;10.586;2023-02-03T06:54:01;8.10;86.90
38183;DHT22;23991;52.430;10.586;2023-02-03T06:56:28;8.10;87.10
38183;DHT22;23991;52.430;10.586;2023-02-03T06:58:54;8.10;87.10
38183;DHT22;23991;52.430;10.586;2023-02-03T07:01:20;8.10;87.10
38183;DHT22;23991;52.430;10.586;2023-02-03T07:03:46;8.10;87.20
38183;DHT22;23991;52.430;10.586;2023-02-03T07:06:12;8.10;87.20
38183;DHT22;23991;52.430;10.586;2023-02-03T07:08:38;8.10;87.20
38183;DHT22;23991;52.430;10.586;2023-02-03T07:11:04;8.10;87.30
38183;DHT22;23991;52.430;10.586;2023-02-03T07:13:29;8.10;87.40
38183;DHT22;23991;52.430;10.586;2023-02-03T07:15:55;8.10;87.40
38183;DHT22;23991;52.430;10.586;2023-02-03T07:18:21;8.10;87.50
38183;DHT22;23991;52.430;10.586;2023-02-03T07:20:49;8.10;87.60
38183;DHT22;23991;52.430;10.586;2023-02-03T07:23:15;8.10;87.60
38183;DHT22;23991;52.430;10.586;2023-02-03T07:25:41;8.10;87.80
38183;DHT22;23991;52.430;10.586;2023-02-03T07:28:06;8.10;87.80
38183;DHT22;23991;52.430;10.586;2023-02-03T07:30:32;8.20;87.90
38183;DHT22;23991;52.430;10.586;2023-02-03T07:32:57;8.10;87.90
38183;DHT22;23991;52.430;10.586;2023-02-03T07:35:23;8.20;88.00
38183;DHT22;23991;52.430;10.586;2023-02-03T07:37:48;8.20;88.10
38183;DHT22;23991;52.430;10.586;2023-02-03T07:40:14;8.20;88.10
38183;DHT22;23991;52.430;10.586;2023-02-03T07:42:44;8.20;88.10
38183;DHT22;23991;52.430;10.586;2023-02-03T07:45:11;8.20;88.10
38183;DHT22;23991;52.430;10.586;2023-02-03T07:47:37;8.20;88.10
38183;DHT22;23991;52.430;10.586;2023-02-03T07:50:04;8.20;88.20
38183;DHT22;23991;52.430;10.586;2023-02-03T07:52:29;8.20;88.30
38183;DHT22;23991;52.430;10.586;2023-02-03T07:54:55;8.20;88.50
38183;DHT22;23991;52.430;10.586;2023-02-03T07:57:20;8.20;88.50
38183;DHT22;23991;52.430;10.586;2023-02-03T07:59:46;8.30;88.50
38183;DHT22;23991;52.430;10.586;2023-02-03T08:02:11;8.30;88.50
38183;DHT22;23991;52.430;10.586;2023-02-03T08:04:37;8.30;88.40
38183;DHT22;23991;52.430;10.586;2023-02-03T08:07:03;8.30;88.40
38183;DHT22;23991;52.430;10.586;2023-02-03T08:09:28;8.30;88.40
38183;DHT22;23991;52.430;10.586;2023-02-03T08:11:54;8.30;88.50
38183;DHT22;23991;52.430;10.586;2023-02-03T08:14:19;8.30;88.50
38183;DHT22;23991;52.430;10.586;2023-02-03T08:16:45;8.30;88.50
38183;DHT22;23991;52.430;10.586;2023-02-03T08:19:11;8.40;88.50
38183;DHT22;23991;52.430;10.586;2023-02-03T08:21:37;8.40;88.50
38183;DHT22;23991;52.430;10.586;2023-02-03T08:24:02;8.40;88.50
38183;DHT22;23991;52.430;10.586;2023-02-03T08:26:28;8.40;88.50
38183;DHT22;23991;52.430;10.586;2023-02-03T08:28:54;8.40;88.40
38183;DHT22;23991;52.430;10.586;2023-02-03T08:31:19;8.40;88.30
38183;DHT22;23991;52.430;10.586;2023-02-03T08:33:45;8.40;88.30
38183;DHT22;23991;52.430;10.586;2023-02-03T08:36:10;8.50;88.30
38183;DHT22;23991;52.430;10.586;2023-02-03T08:38:37;8.40;88.20
38183;DHT22;23991;52.430;10.586;2023-02-03T08:41:14;8.40;88.20
38183;DHT22;23991;52.430;10.586;2023-02-03T08:43:42;8.50;88.20
38183;DHT22;23991;52.430;10.586;2023-02-03T08:46:09;8.50;88.20
38183;DHT22;23991;52.430;10.586;2023-02-03T08:48:35;8.50;88.10
38183;DHT22;23991;52.430;10.586;2023-02-03T08:51:01;8.60;88.00
38183;DHT22;23991;52.430;10.586;2023-02-03T08:53:26;8.60;87.60
38183;DHT22;23991;52.430;10.586;2023-02-03T08:55:52;8.70;87.40
38183;DHT22;23991;52.430;10.586;2023-02-03T08:58:18;8.80;87.20
38183;DHT22;23991;52.430;10.586;2023-02-03T09:00:43;8.80;87.10
38183;DHT22;23991;52.430;10.586;2023-02-03T09:03:09;8.90;87.00
38183;DHT22;23991;52.430;10.586;2023-02-03T09:05:35;8.90;86.70
38183;DHT22;23991;52.430;10.586;2023-02-03T09:08:01;8.90;86.60
38183;DHT22;23991;52.430;10.586;2023-02-03T09:10:27;9.00;86.30
38183;DHT22;23991;52.430;10.586;2023-02-03T09:12:52;9.00;86.20
38183;DHT22;23991;52.430;10.586;2023-02-03T09:15:18;9.10;86.20
38183;DHT22;23991;52.430;10.586;2023-02-03T09:17:43;9.10;86.20
38183;DHT22;23991;52.430;10.586;2023-02-03T09:20:09;9.10;86.10
38183;DHT22;23991;52.430;10.586;2023-02-03T09:22:37;9.20;86.10
38183;DHT22;23991;52.430;10.586;2023-02-03T09:25:03;9.20;86.10
38183;DHT22;23991;52.430;10.586;2023-02-03T09:27:29;9.20;86.30
38183;DHT22;23991;52.430;10.586;2023-02-03T09:29:54;9.30;86.10
38183;DHT22;23991;52.430;10.586;2023-02-03T09:32:20;9.30;86.00
38183;DHT22;23991;52.430;10.586;2023-02-03T09:34:46;9.30;86.10
38183;DHT22;23991;52.430;10.586;2023-02-03T09:37:11;9.30;86.00
38183;DHT22;23991;52.430;10.586;2023-02-03T09:39:37;9.30;86.10
38183;DHT22;23991;52.430;10.586;2023-02-03T09:42:21;9.40;86.10
38183;DHT22;23991;52.430;10.586;2023-02-03T09:47:28;9.50;85.60
38183;DHT22;23991;52.430;10.586;2023-02-03T09:49:59;9.50;85.40
38183;DHT22;23991;52.430;10.586;2023-02-03T09:52:28;9.60;85.20
38183;DHT22;23991;52.430;10.586;2023-02-03T09:57:43;9.60;85.20
38183;DHT22;23991;52.430;10.586;2023-02-03T10:00:26;9.70;85.10
38183;DHT22;23991;52.430;10.586;2023-02-03T10:11:04;9.70;85.10
38183;DHT22;23991;52.430;10.586;2023-02-03T10:19:19;9.80;84.70
38183;DHT22;23991;52.430;10.586;2023-02-03T10:21:50;9.90;84.30
38183;DHT22;23991;52.430;10.586;2023-02-03T10:24:24;9.90;84.20
38183;DHT22;23991;52.430;10.586;2023-02-03T10:26:51;10.00;83.90
38183;DHT22;23991;52.430;10.586;2023-02-03T10:29:21;10.00;83.80
38183;DHT22;23991;52.430;10.586;2023-02-03T10:31:48;10.00;83.70
38183;DHT22;23991;52.430;10.586;2023-02-03T10:34:16;9.90;84.30
38183;DHT22;23991;52.430;10.586;2023-02-03T10:37:13;9.70;85.60
38183;DHT22;23991;52.430;10.586;2023-02-03T10:39:49;9.40;81.80
38183;DHT22;23991;52.430;10.586;2023-02-03T10:42:15;9.30;79.80
38183;DHT22;23991;52.430;10.586;2023-02-03T10:44:45;9.30;78.10
38183;DHT22;23991;52.430;10.586;2023-02-03T10:47:24;9.20;76.60
38183;DHT22;23991;52.430;10.586;2023-02-03T10:49:53;9.30;76.60
38183;DHT22;23991;52.430;10.586;2023-02-03T10:52:28;9.30;76.80
38183;DHT22;23991;52.430;10.586;2023-02-03T10:54:54;9.40;76.50
38183;DHT22;23991;52.430;10.586;2023-02-03T10:57:21;9.60;76.70
38183;DHT22;23991;52.430;10.586;2023-02-03T10:59:47;9.70;76.50
38183;DHT22;23991;52.430;10.586;2023-02-03T11:02:29;10.00;76.10
38183;DHT22;23991;52.430;10.586;2023-02-03T11:05:31;10.20;74.80
38183;DHT22;23991;52.430;10.586;2023-02-03T11:07:56;10.20;73.70
38183;DHT22;23991;52.430;10.586;2023-02-03T11:10:38;10.20;73.00
38183;DHT22;23991;52.430;10.586;2023-02-03T11:13:25;10.30;72.70
38183;DHT22;23991;52.430;10.586;2023-02-03T11:16:02;10.30;72.60
38183;DHT22;23991;52.430;10.586;2023-02-03T11:21:40;10.30;71.90
38183;DHT22;23991;52.430;10.586;2023-02-03T11:24:18;10.30;71.80
38183;DHT22;23991;52.430;10.586;2023-02-03T11:26:53;10.30;71.70
38183;DHT22;23991;52.430;10.586;2023-02-03T11:29:28;10.20;70.90
38183;DHT22;23991;52.430;10.586;2023-02-03T11:32:02;10.30;71.30
38183;DHT22;23991;52.430;10.586;2023-02-03T11:34:30;10.50;71.00
38183;DHT22;23991;52.430;10.586;2023-02-03T11:37:22;10.60;70.50
38183;DHT22;23991;52.430;10.586;2023-02-03T11:39:54;10.60;70.20
38183;DHT22;23991;52.430;10.586;2023-02-03T11:42:22;10.60;70.60
38183;DHT22;23991;52.430;10.586;2023-02-03T11:44:48;10.60;70.20
38183;DHT22;23991;52.430;10.586;2023-02-03T11:47:15;10.50;70.20
38183;DHT22;23991;52.430;10.586;2023-02-03T11:50:06;10.60;69.60
38183;DHT22;23991;52.430;10.586;2023-02-03T12:17:43;11.30;67.90
38183;DHT22;23991;52.430;10.586;2023-02-03T12:20:25;11.60;66.90
38183;DHT22;23991;52.430;10.586;2023-02-03T12:31:24;11.20;67.10
38183;DHT22;23991;52.430;10.586;2023-02-03T12:33:59;11.50;66.50
38183;DHT22;23991;52.430;10.586;2023-02-03T12:36:36;11.40;64.90
38183;DHT22;23991;52.430;10.586;2023-02-03T12:41:56;10.90;65.20
38183;DHT22;23991;52.430;10.586;2023-02-03T12:44:34;10.90;62.90
38183;DHT22;23991;52.430;10.586;2023-02-03T12:47:14;11.00;62.70
38183;DHT22;23991;52.430;10.586;2023-02-03T12:49:58;11.10;62.70
38183;DHT22;23991;52.430;10.586;2023-02-03T12:52:28;11.00;61.40
38183;DHT22;23991;52.430;10.586;2023-02-03T12:55:21;10.90;61.40
38183;DHT22;23991;52.430;10.586;2023-02-03T12:57:57;10.90;61.50
38183;DHT22;23991;52.430;10.586;2023-02-03T13:05:48;11.10;57.80
38183;DHT22;23991;52.430;10.586;2023-02-03T13:08:28;11.00;59.30
38183;DHT22;23991;52.430;10.586;2023-02-03T13:11:26;11.20;58.70
38183;DHT22;23991;52.430;10.586;2023-02-03T13:14:02;11.00;57.80
38183;DHT22;23991;52.430;10.586;2023-02-03T13:16:34;11.20;58.50
38183;DHT22;23991;52.430;10.586;2023-02-03T13:19:06;11.30;58.40
38183;DHT22;23991;52.430;10.586;2023-02-03T13:21:34;11.30;58.40
38183;DHT22;23991;52.430;10.586;2023-02-03T13:24:02;11.10;57.90
38183;DHT22;23991;52.430;10.586;2023-02-03T13:26:38;11.30;57.70
38183;DHT22;23991;52.430;10.586;2023-02-03T13:34:56;11.40;56.30
38183;DHT22;23991;52.430;10.586;2023-02-03T13:37:44;11.20;55.90
38183;DHT22;23991;52.430;10.586;2023-02-03T13:43:05;11.30;56.00
38183;DHT22;23991;52.430;10.586;2023-02-03T13:45:45;11.10;53.40
38183;DHT22;23991;52.430;10.586;2023-02-03T13:48:23;11.10;53.60
38183;DHT22;23991;52.430;10.586;2023-02-03T13:51:04;10.90;53.30
38183;DHT22;23991;52.430;10.586;2023-02-03T13:53:36;10.70;54.00
38183;DHT22;23991;52.430;10.586;2023-02-03T13:56:08;10.70;54.10
38183;DHT22;23991;52.430;10.586;2023-02-03T13:58:41;10.60;54.60
38183;DHT22;23991;52.430;10.586;2023-02-03T14:03:58;10.70;55.50
38183;DHT22;23991;52.430;10.586;2023-02-03T14:14:59;11.10;55.20
38183;DHT22;23991;52.430;10.586;2023-02-03T14:20:02;11.20;55.50
38183;DHT22;23991;52.430;10.586;2023-02-03T14:22:28;11.20;55.50
38183;DHT22;23991;52.430;10.586;2023-02-03T14:24:56;11.10;55.70
38183;DHT22;23991;52.430;10.586;2023-02-03T14:27:27;11.10;55.80
38183;DHT22;23991;52.430;10.586;2023-02-03T14:30:09;10.80;57.00
38183;DHT22;23991;52.430;10.586;2023-02-03T14:32:59;10.90;57.70
38183;DHT22;23991;52.430;10.586;2023-02-03T14:35:31;10.90;57.90
38183;DHT22;23991;52.430;10.586;2023-02-03T14:38:01;11.00;57.70
38183;DHT22;23991;52.430;10.586;2023-02-03T14:40:55;11.10;57.90
38183;DHT22;23991;52.430;10.586;2023-02-03T14:43:34;11.10;57.30
38183;DHT22;23991;52.430;10.586;2023-02-03T15:02:27;10.90;56.10
38183;DHT22;23991;52.430;10.586;2023-02-03T15:07:48;10.80;54.30
38183;DHT22;23991;52.430;10.586;2023-02-03T15:10:19;10.60;53.90
38183;DHT22;23991;52.430;10.586;2023-02-03T15:12:50;10.40;54.90
38183;DHT22;23991;52.430;10.586;2023-02-03T15:17:52;10.60;54.90
38183;DHT22;23991;52.430;10.586;2023-02-03T15:20:37;10.40;55.30
38183;DHT22;23991;52.430;10.586;2023-02-03T15:23:18;10.40;55.10
38183;DHT22;23991;52.430;10.586;2023-02-03T15:25:44;10.30;55.70
38183;DHT22;23991;52.430;10.586;2023-02-03T15:28:18;10.30;56.20
38183;DHT22;23991;52.430;10.586;2023-02-03T15:30:45;10.30;56.60
38183;DHT22;23991;52.430;10.586;2023-02-03T15:33:15;10.30;56.50
38183;DHT22;23991;52.430;10.586;2023-02-03T15:35:42;10.20;56.50
38183;DHT22;23991;52.430;10.586;2023-02-03T15:38:18;10.30;56.30
38183;DHT22;23991;52.430;10.586;2023-02-03T15:40:48;10.10;56.60
38183;DHT22;23991;52.430;10.586;2023-02-03T15:43:23;10.00;56.30
38183;DHT22;23991;52.430;10.586;2023-02-03T15:49:33;9.90;56.60
38183;DHT22;23991;52.430;10.586;2023-02-03T15:51:50;9.90;56.70
38183;DHT22;23991;52.430;10.586;2023-02-03T15:54:27;9.60;56.80
38183;DHT22;23991;52.430;10.586;2023-02-03T15:56:56;9.60;56.40
38183;DHT22;23991;52.430;10.586;2023-02-03T15:59:32;9.60;57.40
38183;DHT22;23991;52.430;10.586;2023-02-03T16:02:00;9.50;57.30
38183;DHT22;23991;52.430;10.586;2023-02-03T16:04:29;9.60;57.20
38183;DHT22;23991;52.430;10.586;2023-02-03T16:06:55;9.50;57.80
38183;DHT22;23991;52.430;10.586;2023-02-03T16:09:32;9.60;58.10
38183;DHT22;23991;52.430;10.586;2023-02-03T16:12:14;9.40;57.60
38183;DHT22;23991;52.430;10.586;2023-02-03T16:14:41;9.50;57.50
38183;DHT22;23991;52.430;10.586;2023-02-03T16:22:41;9.40;57.90
38183;DHT22;23991;52.430;10.586;2023-02-03T16:25:26;9.40;57.90
38183;DHT22;23991;52.430;10.586;2023-02-03T16:31:09;9.40;58.30
38183;DHT22;23991;52.430;10.586;2023-02-03T16:33:53;9.40;58.70
38183;DHT22;23991;52.430;10.586;2023-02-03T16:36:42;9.30;59.10
38183;DHT22;23991;52.430;10.586;2023-02-03T16:39:27;9.30;59.30
38183;DHT22;23991;52.430;10.586;2023-02-03T16:42:18;9.20;59.60
38183;DHT22;23991;52.430;10.586;2023-02-03T16:45:05;9.20;60.00
38183;DHT22;23991;52.430;10.586;2023-02-03T16:47:53;9.20;60.00
38183;DHT22;23991;52.430;10.586;2023-02-03T16:50:37;9.20;60.30
38183;DHT22;23991;52.430;10.586;2023-02-03T16:53:20;9.20;60.40
38183;DHT22;23991;52.430;10.586;2023-02-03T16:55:46;9.10;60.60
38183;DHT22;23991;52.430;10.586;2023-02-03T16:58:12;9.00;61.10
38183;DHT22;23991;52.430;10.586;2023-02-03T17:00:39;9.10;61.50
38183;DHT22;23991;52.430;10.586;2023-02-03T17:03:16;9.00;61.40
38183;DHT22;23991;52.430;10.586;2023-02-03T17:05:44;8.90;61.80
38183;DHT22;23991;52.430;10.586;2023-02-03T17:08:09;8.90;62.10
38183;DHT22;23991;52.430;10.586;2023-02-03T17:10:36;8.90;62.60
38183;DHT22;23991;52.430;10.586;2023-02-03T17:13:03;8.90;62.80
38183;DHT22;23991;52.430;10.586;2023-02-03T17:15:28;8.90;63.50
38183;DHT22;23991;52.430;10.586;2023-02-03T17:17:54;8.80;64.10
38183;DHT22;23991;52.430;10.586;2023-02-03T17:20:20;8.70;64.20
38183;DHT22;23991;52.430;10.586;2023-02-03T17:22:45;8.70;64.70
38183;DHT22;23991;52.430;10.586;2023-02-03T17:25:11;8.60;65.10
38183;DHT22;23991;52.430;10.586;2023-02-03T17:27:36;8.60;65.90
38183;DHT22;23991;52.430;10.586;2023-02-03T17:30:03;8.60;66.50
38183;DHT22;23991;52.430;10.586;2023-02-03T17:32:28;8.50;67.70
38183;DHT22;23991;52.430;10.586;2023-02-03T17:34:54;8.40;68.70
38183;DHT22;23991;52.430;10.586;2023-02-03T17:37:20;8.40;69.20
38183;DHT22;23991;52.430;10.586;2023-02-03T17:39:45;8.40;69.60
38183;DHT22;23991;52.430;10.586;2023-02-03T17:42:11;8.30;69.70
38183;DHT22;23991;52.430;10.586;2023-02-03T17:44:36;8.30;70.40
38183;DHT22;23991;52.430;10.586;2023-02-03T17:47:02;8.20;71.20
38183;DHT22;23991;52.430;10.586;2023-02-03T17:49:28;8.10;71.90
38183;DHT22;23991;52.430;10.586;2023-02-03T17:51:54;7.90;72.20
38183;DHT22;23991;52.430;10.586;2023-02-03T17:54:19;7.90;73.60
38183;DHT22;23991;52.430;10.586;2023-02-03T17:56:45;7.90;73.10
38183;DHT22;23991;52.430;10.586;2023-02-03T17:59:13;7.80;73.40
38183;DHT22;23991;52.430;10.586;2023-02-03T18:01:38;7.80;74.00
38183;DHT22;23991;52.430;10.586;2023-02-03T18:04:05;7.80;74.40
38183;DHT22;23991;52.430;10.586;2023-02-03T18:06:31;7.70;74.70